Accueil
METAR-TAF:

METAR-TAF

Aéroports :

Aérodrome de Forlì

Forlì, Italie

latitude: 44-12N, longitude: 012-04E, altitude: 27 m

Observation

Le bulletin a été fait il y a 3 heures et 0 minutes, à 21:50 UTC
Vent 3 kt de direction variable
Température 23°C
Humidité 47%
Pression 1013 hPa
Visibilité 10 km ou plus
pas de nuages en-dessous de 1500 mètres et pas de cumulonimbus.

METAR: LIPK 032150Z VRB03KT CAVOK 23/11 Q1013

Heure: 02:50 (00:50 UTC)

Prévision

Le bulletin a été fait il y a 7 heures et 50 minutes, à 17:00 UTC
Prévision valable du 03 à 18 UTC au 04 à 18 UTC
Vent 10 kt de ouest/sud-ouest
Visibilité 10 km ou plus
Quelques nuages à une hauteur de 3000 ft
Evoluant progressivement
du 03 à 20 UTC au 03 à 22 UTC
Vent 5 kt de direction variable
Evoluant progressivement
du 04 à 06 UTC au 04 à 09 UTC
Vent 10 kt de est

TAF: LIPK 031700Z 0318/0418 24010KT 9999 FEW030 BECMG 0320/0322 VRB05KT BECMG 0406/0409 09010KT

Observations et prévisions météorologiques de plus de 4000 aéroports (messages METAR et TAF).

Les stations disponibles sont représentées par des disques jaunes et rouges sur la carte.

Passer la souris dessus pour voir le nom de la station.

Cliquer dessus pour voir les observations et prévisions météorologiques.

Pour changer de carte: cliquez sur les boutons verts avec une croix noire pour zoomer, sur le bouton vert avec un tiret pour effectuer un zoom arrière, ou sur les flèches vertes pour les cartes adjacentes.


METAR-TAF: